Time;durP1;ratioP1;P1;durP2;ratioP2;P2;SDS_P1;SDS_P2;PMS_P1;PMS_P2;Temp;Humidity;BMP_temperature;BMP_pressure;BME280_temperature;BME280_humidity;BME280_pressure;Samples;Min_cycle;Max_cycle;Signal;HPM_P1;HPM_P2
2024/01/15 00:01:45;;;;;;;10.17;5.47;;;;;;;-5.82;100.00;97411.34;5072646;28;20113;-74
2024/01/15 00:04:13;;;;;;;9.40;5.30;;;;;;;-5.78;100.00;97423.91;5058605;28;20056;-74
2024/01/15 00:06:40;;;;;;;11.77;7.03;;;;;;;-5.79;100.00;97416.25;4996557;28;20058;-74
2024/01/15 00:09:06;;;;;;;11.97;5.97;;;;;;;-5.82;100.00;97403.59;4989637;28;20064;-73
2024/01/15 00:11:35;;;;;;;9.03;5.23;;;;;;;-5.66;100.00;97396.34;4977426;28;20525;-74
2024/01/15 00:14:00;;;;;;;11.30;6.33;;;;;;;-5.76;100.00;97398.78;4997885;28;20115;-76
2024/01/15 00:16:26;;;;;;;9.50;5.90;;;;;;;-5.73;100.00;97402.88;4959739;28;20053;-77
2024/01/15 00:18:52;;;;;;;7.67;5.07;;;;;;;-5.75;100.00;97392.66;4976076;28;20048;-74
2024/01/15 00:21:18;;;;;;;13.27;5.90;;;;;;;-5.74;100.00;97401.25;4997752;28;20060;-76
2024/01/15 00:23:45;;;;;;;10.87;6.23;;;;;;;-5.74;100.00;97396.06;4979997;28;20057;-77
2024/01/15 00:26:13;;;;;;;12.40;6.93;;;;;;;-5.74;100.00;97389.16;4972307;28;20178;-76
2024/01/15 00:28:39;;;;;;;11.13;6.23;;;;;;;-5.74;100.00;97372.81;4995976;28;20524;-76
2024/01/15 00:31:05;;;;;;;9.10;5.50;;;;;;;-5.69;100.00;97376.69;5010656;28;20069;-72
2024/01/15 00:33:31;;;;;;;11.57;6.43;;;;;;;-5.69;100.00;97375.91;5046877;28;20147;-73
2024/01/15 00:36:01;;;;;;;9.03;5.33;;;;;;;-5.70;100.00;97362.13;5036419;28;20045;-72
2024/01/15 00:38:26;;;;;;;10.77;5.73;;;;;;;-5.66;100.00;97383.41;5039292;28;20059;-71
2024/01/15 00:40:54;;;;;;;12.03;6.23;;;;;;;-5.56;100.00;97376.59;5059300;28;20049;-72
2024/01/15 00:43:20;;;;;;;11.20;6.50;;;;;;;-5.67;100.00;97364.50;5006934;28;20036;-72
2024/01/15 00:45:45;;;;;;;10.13;6.37;;;;;;;-5.67;100.00;97371.41;5006858;28;20513;-71
2024/01/15 00:48:11;;;;;;;9.07;5.83;;;;;;;-5.68;100.00;97365.44;5007131;28;20083;-72
2024/01/15 00:50:37;;;;;;;12.20;6.97;;;;;;;-5.63;100.00;97373.66;5023176;28;20498;-72
2024/01/15 00:53:03;;;;;;;11.47;6.83;;;;;;;-5.67;100.00;97366.25;5006070;28;20354;-72
2024/01/15 00:55:29;;;;;;;9.53;6.10;;;;;;;-5.67;100.00;97350.72;5007290;28;20059;-72
2024/01/15 00:57:56;;;;;;;10.37;6.17;;;;;;;-5.66;100.00;97363.53;5024884;28;20078;-72
2024/01/15 01:00:21;;;;;;;12.07;6.90;;;;;;;-5.65;100.00;97351.44;5058811;28;20452;-72
2024/01/15 01:02:47;;;;;;;13.27;7.03;;;;;;;-5.64;100.00;97355.66;5076201;28;20082;-72
2024/01/15 01:05:16;;;;;;;8.97;5.70;;;;;;;-5.61;100.00;97335.59;5043083;28;20097;-72
2024/01/15 01:07:45;;;;;;;9.93;5.80;;;;;;;-5.64;100.00;97345.34;5041685;28;20047;-72
2024/01/15 01:10:12;;;;;;;7.53;5.17;;;;;;;-5.61;100.00;97345.09;5055237;28;20135;-72
2024/01/15 01:12:37;;;;;;;12.03;6.63;;;;;;;-5.61;100.00;97337.34;5046468;28;20154;-72
2024/01/15 01:15:05;;;;;;;13.10;6.73;;;;;;;-5.60;100.00;97331.25;5036931;28;20056;-74
2024/01/15 01:17:37;;;;;;;9.83;6.20;;;;;;;-5.58;100.00;97339.72;5022245;28;20600;-72
2024/01/15 01:20:15;;;;;;;9.70;6.03;;;;;;;-5.46;100.00;97339.59;5052367;28;20152;-74
2024/01/15 01:23:00;;;;;;;9.47;5.80;;;;;;;-5.53;100.00;97332.44;5040227;28;20036;-74
2024/01/15 01:25:28;;;;;;;13.23;6.90;;;;;;;-5.54;100.00;97325.63;5038127;28;20844;-72
2024/01/15 01:27:56;;;;;;;6.93;5.00;;;;;;;-5.48;100.00;97318.25;4989638;28;20537;-74
2024/01/15 01:30:21;;;;;;;11.43;6.43;;;;;;;-5.47;100.00;97325.03;5020727;28;20052;-74
2024/01/15 01:32:47;;;;;;;12.17;7.23;;;;;;;-5.43;100.00;97320.47;5021488;28;20142;-75
2024/01/15 01:35:13;;;;;;;11.97;6.60;;;;;;;-5.44;100.00;97311.03;5021330;28;20151;-75
2024/01/15 01:37:39;;;;;;;11.13;5.80;;;;;;;-5.41;100.00;97314.22;5021677;28;20067;-74
2024/01/15 01:40:10;;;;;;;10.70;6.57;;;;;;;-5.32;100.00;97310.13;5024717;28;20056;-74
2024/01/15 01:42:36;;;;;;;10.75;5.72;;;;;;;-5.31;100.00;97312.59;5045449;28;20083;-75
2024/01/15 01:45:04;;;;;;;13.13;6.53;;;;;;;-5.26;100.00;97312.25;5078913;28;20087;-76
2024/01/15 01:47:32;;;;;;;10.30;5.73;;;;;;;-5.20;100.00;97299.66;5057916;28;20087;-75
2024/01/15 01:50:00;;;;;;;9.50;5.67;;;;;;;-5.15;100.00;97307.06;5057543;28;20125;-75
2024/01/15 01:52:32;;;;;;;9.50;5.97;;;;;;;-5.17;100.00;97301.19;5038483;28;20052;-76
2024/01/15 01:55:01;;;;;;;9.27;5.23;;;;;;;-5.12;100.00;97296.50;5004378;28;20533;-75
2024/01/15 01:57:28;;;;;;;8.90;5.80;;;;;;;-5.16;100.00;97297.66;4978303;28;20233;-76
2024/01/15 01:59:54;;;;;;;10.60;6.10;;;;;;;-5.15;100.00;97296.72;4962364;28;20481;-76
2024/01/15 02:02:21;;;;;;;12.23;6.73;;;;;;;-5.11;100.00;97302.47;4960655;28;20045;-76
2024/01/15 02:04:53;;;;;;;11.67;7.40;;;;;;;-5.06;100.00;97290.84;4992039;28;20411;-76
2024/01/15 02:07:21;;;;;;;12.70;7.07;;;;;;;-5.05;100.00;97291.66;5008531;28;20085;-76
2024/01/15 02:09:49;;;;;;;16.87;7.47;;;;;;;-5.11;100.00;97281.78;4976027;28;20050;-75
2024/01/15 02:12:17;;;;;;;10.52;6.35;;;;;;;-5.12;100.00;97278.38;4973814;28;20137;-76
2024/01/15 02:14:46;;;;;;;13.47;6.73;;;;;;;-5.13;100.00;97289.66;4959221;28;20558;-76
2024/01/15 02:17:11;;;;;;;12.87;6.87;;;;;;;-5.12;100.00;97288.72;4975014;28;20187;-76
2024/01/15 02:19:39;;;;;;;11.27;6.53;;;;;;;-5.12;100.00;97267.22;4995347;28;20053;-74
2024/01/15 02:22:05;;;;;;;10.90;6.30;;;;;;;-5.09;100.00;97269.56;4979224;28;20105;-76
2024/01/15 02:24:31;;;;;;;14.80;7.77;;;;;;;-5.02;100.00;97275.88;4979712;28;20057;-75
2024/01/15 02:26:57;;;;;;;12.27;7.00;;;;;;;-5.00;100.00;97292.94;4979230;28;20807;-75
2024/01/15 02:29:23;;;;;;;11.00;6.27;;;;;;;-4.93;100.00;97280.34;4995617;28;20045;-75
2024/01/15 02:31:49;;;;;;;8.83;5.60;;;;;;;-4.91;100.00;97271.53;5029062;28;20115;-74
2024/01/15 02:34:16;;;;;;;10.87;5.83;;;;;;;-4.76;100.00;97272.91;5006717;28;20057;-75
2024/01/15 02:36:45;;;;;;;10.00;6.27;;;;;;;-4.80;100.00;97273.25;4993146;28;20056;-76
2024/01/15 02:39:17;;;;;;;10.40;6.30;;;;;;;-4.77;100.00;97273.00;5009970;28;20045;-75
2024/01/15 02:41:45;;;;;;;8.80;5.50;;;;;;;-4.74;100.00;97273.59;5009731;28;20045;-75
2024/01/15 02:44:13;;;;;;;12.20;6.80;;;;;;;-4.62;100.00;97269.19;4992710;28;20037;-75
2024/01/15 02:46:44;;;;;;;9.15;5.72;;;;;;;-4.64;100.00;97277.09;4998050;28;20064;-75
2024/01/15 02:49:10;;;;;;;10.30;6.10;;;;;;;-4.61;100.00;97281.22;5014086;28;20086;-75
2024/01/15 02:51:39;;;;;;;10.57;6.40;;;;;;;-4.58;100.00;97275.81;5006754;28;20056;-72
2024/01/15 02:54:08;;;;;;;15.07;8.00;;;;;;;-4.45;100.00;97282.47;4971997;28;20100;-69
2024/01/15 02:56:34;;;;;;;12.00;7.53;;;;;;;-4.55;100.00;97276.34;4995903;28;20068;-68
2024/01/15 02:59:00;;;;;;;12.23;7.33;;;;;;;-4.53;100.00;97287.44;5031146;28;20584;-70
2024/01/15 03:01:26;;;;;;;12.10;7.17;;;;;;;-4.53;100.00;97271.88;5016682;28;20041;-69
2024/01/15 03:03:52;;;;;;;12.37;6.87;;;;;;;-4.56;100.00;97261.78;5037661;28;20427;-70
2024/01/15 03:06:19;;;;;;;11.80;6.57;;;;;;;-4.42;100.00;97265.84;5054571;28;20078;-72
2024/01/15 03:08:45;;;;;;;12.03;6.67;;;;;;;-4.45;100.00;97261.75;5035030;28;20056;-73
2024/01/15 03:11:12;;;;;;;13.20;7.60;;;;;;;-4.44;100.00;97262.53;5034706;28;20091;-74
2024/01/15 03:13:39;;;;;;;17.00;8.13;;;;;;;-4.30;100.00;97270.84;5018822;28;20079;-73
2024/01/15 03:16:06;;;;;;;12.67;7.40;;;;;;;-4.36;100.00;97263.59;5020040;28;20122;-72
2024/01/15 03:18:33;;;;;;;13.27;7.60;;;;;;;-4.29;100.00;97267.31;5018861;28;20058;-75
2024/01/15 03:21:01;;;;;;;12.13;6.70;;;;;;;-4.30;100.00;97257.91;5034904;28;20052;-73
2024/01/15 03:23:27;;;;;;;12.70;6.70;;;;;;;-4.22;100.00;97263.28;5021767;28;20139;-71
2024/01/15 03:25:52;;;;;;;13.30;7.60;;;;;;;-4.21;100.00;97267.50;5054401;28;20078;-72
2024/01/15 03:28:22;;;;;;;14.77;7.20;;;;;;;-4.18;100.00;97261.28;5006141;28;20530;-72
2024/01/15 03:30:48;;;;;;;13.00;7.23;;;;;;;-4.16;100.00;97256.78;5036560;28;20051;-70
2024/01/15 03:33:17;;;;;;;14.63;8.30;;;;;;;-4.01;100.00;97255.50;5054139;28;20056;-70
2024/01/15 03:35:44;;;;;;;11.73;6.90;;;;;;;-4.02;100.00;97253.88;5039305;28;20472;-70
2024/01/15 03:38:10;;;;;;;17.83;9.63;;;;;;;-4.10;100.00;97253.66;5034287;28;20421;-73
2024/01/15 03:40:38;;;;;;;16.27;8.50;;;;;;;-4.11;100.00;97250.28;5076160;27;20099;-71
2024/01/15 03:43:07;;;;;;;14.67;7.90;;;;;;;-3.92;100.00;97245.22;5093101;28;20043;-70
2024/01/15 03:45:35;;;;;;;16.73;8.80;;;;;;;-4.03;100.00;97252.25;5076450;28;20050;-70
2024/01/15 03:48:00;;;;;;;13.57;7.13;;;;;;;-3.98;100.00;97234.50;5093431;28;20070;-70
2024/01/15 03:50:26;;;;;;;15.03;8.03;;;;;;;-3.99;100.00;97233.72;5092894;28;20071;-70
2024/01/15 03:52:52;;;;;;;15.43;9.13;;;;;;;-3.96;100.00;97254.19;5060398;28;20040;-71
2024/01/15 03:55:19;;;;;;;14.87;8.33;;;;;;;-3.93;100.00;97253.09;5077151;28;20043;-71
2024/01/15 03:57:45;;;;;;;15.20;7.93;;;;;;;-3.93;100.00;97243.56;5095136;27;20031;-72
2024/01/15 04:00:17;;;;;;;16.93;9.77;;;;;;;-3.87;100.00;97250.00;5078678;28;20452;-72
2024/01/15 04:02:44;;;;;;;13.30;7.47;;;;;;;-3.83;100.00;97248.81;5036361;28;20086;-71
2024/01/15 04:05:10;;;;;;;12.83;6.90;;;;;;;-3.82;100.00;97250.44;5052393;28;20048;-74
2024/01/15 04:07:38;;;;;;;12.63;7.17;;;;;;;-3.81;100.00;97247.72;5054553;28;20064;-72
2024/01/15 04:10:04;;;;;;;14.50;7.73;;;;;;;-3.77;100.00;97237.94;5036215;28;20044;-71
2024/01/15 04:12:55;;;;;;;11.77;6.63;;;;;;;-3.76;100.00;97240.41;5061989;28;20056;-71
2024/01/15 04:15:22;;;;;;;10.77;6.77;;;;;;;-3.72;100.00;97238.38;5038446;28;20040;-72
2024/01/15 04:17:48;;;;;;;10.93;6.50;;;;;;;-3.72;100.00;97231.41;5054806;28;20066;-69
2024/01/15 04:20:13;;;;;;;10.73;6.13;;;;;;;-3.67;100.00;97247.41;5037646;28;20052;-68
2024/01/15 04:22:39;;;;;;;11.13;6.33;;;;;;;-3.64;100.00;97241.97;5053158;28;20435;-70
2024/01/15 04:25:05;;;;;;;11.53;6.27;;;;;;;-3.59;100.00;97229.44;5054789;28;20066;-70
2024/01/15 04:27:31;;;;;;;10.57;5.93;;;;;;;-3.58;100.00;97230.22;5054541;28;20071;-70
2024/01/15 04:29:59;;;;;;;11.17;6.30;;;;;;;-3.56;100.00;97230.94;5038020;28;20464;-67
2024/01/15 04:32:25;;;;;;;12.10;6.20;;;;;;;-3.55;100.00;97223.03;5039726;28;20052;-69
2024/01/15 04:34:51;;;;;;;10.67;6.73;;;;;;;-3.51;100.00;97232.19;5077705;28;20039;-70
2024/01/15 04:37:17;;;;;;;12.83;6.60;;;;;;;-3.47;100.00;97233.56;5109386;28;20043;-70
2024/01/15 04:39:42;;;;;;;13.07;7.67;;;;;;;-3.46;100.00;97232.63;5093667;28;20043;-71
2024/01/15 04:42:08;;;;;;;11.17;7.00;;;;;;;-3.46;100.00;97235.22;5128439;28;20074;-71
2024/01/15 04:44:34;;;;;;;11.50;6.27;;;;;;;-3.42;100.00;97219.38;5078632;28;20089;-70
2024/01/15 04:47:00;;;;;;;14.83;7.70;;;;;;;-3.42;100.00;97233.19;5131396;27;20043;-70
2024/01/15 04:49:29;;;;;;;12.17;6.80;;;;;;;-3.25;100.00;97223.94;5097861;27;20156;-68
2024/01/15 04:51:55;;;;;;;13.40;7.37;;;;;;;-3.38;100.00;97224.19;5095970;28;20292;-69
2024/01/15 04:54:21;;;;;;;15.37;8.10;;;;;;;-3.36;100.00;97237.84;5078828;28;20051;-69
2024/01/15 04:56:46;;;;;;;12.37;7.47;;;;;;;-3.34;100.00;97240.31;5060816;28;20055;-69
2024/01/15 04:59:14;;;;;;;12.17;6.53;;;;;;;-3.24;100.00;97241.19;5060230;28;20051;-69
2024/01/15 05:01:40;;;;;;;12.83;7.03;;;;;;;-3.29;100.00;97227.78;5061251;28;20201;-69
2024/01/15 05:04:05;;;;;;;11.70;6.47;;;;;;;-3.25;100.00;97229.97;5060283;28;20191;-69
2024/01/15 05:06:31;;;;;;;13.23;7.63;;;;;;;-3.28;100.00;97235.44;5060019;28;20043;-68
2024/01/15 05:08:57;;;;;;;11.77;6.80;;;;;;;-3.26;100.00;97232.69;5061878;28;20078;-70
2024/01/15 05:11:23;;;;;;;14.50;7.57;;;;;;;-3.23;100.00;97232.44;5095630;28;20475;-69
2024/01/15 05:13:52;;;;;;;12.37;7.10;;;;;;;-3.21;100.00;97220.97;5079013;28;20047;-69
2024/01/15 05:16:19;;;;;;;11.30;7.27;;;;;;;-3.19;100.00;97220.81;5062269;28;20096;-69
2024/01/15 05:18:44;;;;;;;12.97;7.73;;;;;;;-3.15;100.00;97223.03;5078506;28;20069;-69
2024/01/15 05:21:10;;;;;;;9.53;6.17;;;;;;;-3.12;100.00;97232.34;5078786;28;20051;-70
2024/01/15 05:23:36;;;;;;;9.40;5.97;;;;;;;-3.08;100.00;97215.53;5061764;28;20624;-69
2024/01/15 05:26:01;;;;;;;15.27;7.37;;;;;;;-2.98;100.00;97234.56;5061845;28;20512;-68
2024/01/15 05:28:27;;;;;;;12.87;7.30;;;;;;;-2.96;100.00;97222.25;5065465;27;20462;-69
2024/01/15 05:30:54;;;;;;;10.67;6.53;;;;;;;-2.97;100.00;97224.06;5119166;27;20061;-69
2024/01/15 05:33:24;;;;;;;12.37;7.23;;;;;;;-2.81;100.00;97229.53;5091837;28;20040;-69
2024/01/15 05:35:50;;;;;;;12.20;7.43;;;;;;;-2.93;100.00;97228.00;5058033;28;20052;-69
2024/01/15 05:38:16;;;;;;;12.83;7.27;;;;;;;-2.87;100.00;97219.69;5045289;28;20058;-71
2024/01/15 05:40:43;;;;;;;12.70;7.80;;;;;;;-2.89;100.00;97239.75;5057346;28;20055;-69
2024/01/15 05:43:08;;;;;;;11.33;7.10;;;;;;;-2.85;100.00;97222.13;5054891;28;20052;-69
2024/01/15 05:45:38;;;;;;;11.77;7.63;;;;;;;-2.78;100.00;97229.25;5071854;28;20495;-69
2024/01/15 05:48:04;;;;;;;13.90;8.17;;;;;;;-2.88;100.00;97223.25;5055455;28;20052;-70
2024/01/15 05:50:29;;;;;;;14.97;9.37;;;;;;;-2.85;100.00;97243.75;5039070;28;20051;-69
2024/01/15 05:52:56;;;;;;;15.17;8.30;;;;;;;-2.82;100.00;97237.44;5052525;28;20086;-68
2024/01/15 05:55:21;;;;;;;15.53;8.33;;;;;;;-2.81;100.00;97228.69;5052484;28;20146;-69
2024/01/15 05:57:47;;;;;;;17.10;8.90;;;;;;;-2.82;100.00;97232.25;5004539;28;20060;-69
2024/01/15 06:00:13;;;;;;;13.00;8.40;;;;;;;-2.80;100.00;97228.59;5070875;28;20040;-68
2024/01/15 06:02:40;;;;;;;15.90;8.50;;;;;;;-2.79;100.00;97226.78;5053928;28;20087;-69
2024/01/15 06:05:07;;;;;;;15.20;9.10;;;;;;;-2.77;100.00;97240.47;5053681;27;20051;-68
2024/01/15 06:07:37;;;;;;;14.40;7.60;;;;;;;-2.61;100.00;97236.38;5081086;27;20051;-68
2024/01/15 06:10:04;;;;;;;11.97;7.50;;;;;;;-2.69;100.00;97238.03;5081011;27;20042;-69
2024/01/15 06:12:31;;;;;;;13.00;7.27;;;;;;;-2.65;100.00;97231.59;5115227;27;20475;-68
2024/01/15 06:14:58;;;;;;;11.23;7.40;;;;;;;-2.55;100.00;97229.84;5097743;27;20047;-69
2024/01/15 06:17:24;;;;;;;13.87;8.30;;;;;;;-2.66;100.00;97230.78;5097351;27;20047;-69
2024/01/15 06:19:50;;;;;;;16.40;8.73;;;;;;;-2.61;100.00;97246.78;5097289;27;20116;-69
2024/01/15 06:22:15;;;;;;;14.80;8.20;;;;;;;-2.61;100.00;97225.16;5097534;27;20055;-69
2024/01/15 06:24:41;;;;;;;14.37;7.70;;;;;;;-2.60;100.00;97232.81;5081360;27;20039;-69
2024/01/15 06:27:07;;;;;;;12.93;8.03;;;;;;;-2.55;100.00;97233.25;5098665;27;20470;-69
2024/01/15 06:29:33;;;;;;;14.40;7.33;;;;;;;-2.52;100.00;97234.78;5115358;27;20043;-69
2024/01/15 06:31:58;;;;;;;12.93;7.30;;;;;;;-2.51;100.00;97232.03;5133119;27;20050;-69
2024/01/15 06:34:24;;;;;;;14.83;8.33;;;;;;;-2.49;100.00;97250.88;5115237;27;20100;-69
2024/01/15 06:36:50;;;;;;;11.03;6.67;;;;;;;-2.43;100.00;97237.34;5115238;27;20368;-69
2024/01/15 06:39:15;;;;;;;9.93;6.00;;;;;;;-2.46;100.00;97226.44;5081756;27;20444;-69
2024/01/15 06:41:43;;;;;;;8.97;5.60;;;;;;;-2.38;100.00;97240.38;5098164;27;20063;-70
2024/01/15 06:44:10;;;;;;;6.97;4.77;;;;;;;-2.26;100.00;97238.47;5098385;27;20035;-69
2024/01/15 06:46:36;;;;;;;6.93;4.50;;;;;;;-2.30;100.00;97252.69;5132014;27;20108;-69
2024/01/15 06:49:03;;;;;;;9.90;5.03;;;;;;;-2.29;100.00;97264.72;5114440;27;20055;-69
2024/01/15 06:51:29;;;;;;;6.67;4.03;;;;;;;-2.23;100.00;97246.78;5098010;27;20103;-68
2024/01/15 06:53:56;;;;;;;6.53;3.80;;;;;;;-2.20;100.00;97250.91;5114978;27;20469;-69
2024/01/15 06:56:21;;;;;;;6.40;4.53;;;;;;;-2.18;100.00;97267.16;5134445;27;20510;-69
2024/01/15 06:58:51;;;;;;;7.13;4.27;;;;;;;-2.19;100.00;97268.13;5100908;27;20073;-68
2024/01/15 07:01:18;;;;;;;8.43;5.60;;;;;;;-2.08;100.00;97255.00;5129936;27;20046;-69
2024/01/15 07:03:44;;;;;;;9.73;5.40;;;;;;;-2.14;100.00;97247.75;5117816;27;20490;-68
2024/01/15 07:06:10;;;;;;;8.83;5.10;;;;;;;-2.09;100.00;97238.56;5117317;27;20546;-70
2024/01/15 07:08:36;;;;;;;5.77;4.07;;;;;;;-2.06;100.00;97245.31;5134926;27;20038;-69
2024/01/15 07:11:05;;;;;;;8.57;4.90;;;;;;;-1.90;100.00;97251.56;5100736;27;20051;-69
2024/01/15 07:13:31;;;;;;;6.63;4.20;;;;;;;-1.96;100.00;97246.09;5134312;27;20039;-69
2024/01/15 07:15:59;;;;;;;8.27;5.30;;;;;;;-1.89;100.00;97252.38;5100035;27;20545;-68
2024/01/15 07:18:26;;;;;;;8.47;5.47;;;;;;;-1.98;100.00;97242.81;5066738;27;20051;-69
2024/01/15 07:20:56;;;;;;;8.77;4.87;;;;;;;-1.93;100.00;97254.44;5151077;27;20106;-68
2024/01/15 07:23:21;;;;;;;10.77;6.33;;;;;;;-1.96;100.00;97241.72;5093092;28;20348;-70
2024/01/15 07:25:47;;;;;;;8.60;5.17;;;;;;;-1.94;100.00;97259.78;5076421;28;20047;-69
2024/01/15 07:28:13;;;;;;;8.30;5.40;;;;;;;-1.93;100.00;97238.00;5025507;28;20066;-69
2024/01/15 07:30:39;;;;;;;7.93;5.00;;;;;;;-1.92;100.00;97237.88;5039441;28;20047;-68
2024/01/15 07:33:05;;;;;;;9.67;5.77;;;;;;;-1.87;100.00;97242.66;5040631;28;20135;-69
2024/01/15 07:35:32;;;;;;;8.97;5.40;;;;;;;-1.79;100.00;97253.19;5039404;28;20369;-68
2024/01/15 07:38:00;;;;;;;6.40;4.57;;;;;;;-1.76;100.00;97245.09;5000606;28;20091;-69
2024/01/15 07:40:27;;;;;;;6.37;4.10;;;;;;;-1.64;100.00;97243.97;4984022;28;20146;-69
2024/01/15 07:42:53;;;;;;;6.37;3.77;;;;;;;-1.68;100.00;97244.41;5016523;28;20477;-70
2024/01/15 07:45:18;;;;;;;9.53;4.80;;;;;;;-1.61;100.00;97253.28;5016531;28;20141;-69
2024/01/15 07:47:44;;;;;;;6.63;4.33;;;;;;;-1.59;100.00;97244.38;5016104;28;20057;-69
2024/01/15 07:50:11;;;;;;;7.43;4.57;;;;;;;-1.49;100.00;97257.38;5001042;28;20049;-70
2024/01/15 07:52:41;;;;;;;5.27;3.90;;;;;;;-1.53;100.00;97245.59;5032849;28;20482;-69
2024/01/15 07:55:08;;;;;;;8.30;4.60;;;;;;;-1.46;100.00;97255.28;5049924;28;20484;-69
2024/01/15 07:57:35;;;;;;;7.03;4.37;;;;;;;-1.42;100.00;97245.41;5072373;28;20392;-68
2024/01/15 08:00:05;;;;;;;7.43;4.67;;;;;;;-1.36;100.00;97278.69;5072590;28;20058;-69
2024/01/15 08:02:34;;;;;;;9.83;6.37;;;;;;;-1.38;100.00;97249.41;5072644;28;20070;-68
2024/01/15 08:05:02;;;;;;;6.55;4.47;;;;;;;-1.34;100.00;97255.94;5057241;28;20047;-68
2024/01/15 08:07:30;;;;;;;8.90;4.80;;;;;;;-1.34;100.00;97248.13;5039845;28;20165;-69
2024/01/15 08:09:56;;;;;;;7.03;4.43;;;;;;;-1.29;100.00;97244.13;5068955;28;20052;-69
2024/01/15 08:12:22;;;;;;;6.17;3.80;;;;;;;-1.27;100.00;97237.00;5055624;28;20059;-68
2024/01/15 08:14:48;;;;;;;6.17;4.20;;;;;;;-1.23;100.00;97242.75;5072378;28;20044;-69
2024/01/15 08:17:14;;;;;;;8.50;5.17;;;;;;;-1.24;100.00;97235.88;5035471;28;20498;-68
2024/01/15 08:19:41;;;;;;;6.30;4.20;;;;;;;-1.20;100.00;97248.47;5019256;28;20151;-69
2024/01/15 08:22:07;;;;;;;5.37;3.83;;;;;;;-1.19;100.00;97244.94;5018613;28;20143;-69
2024/01/15 08:24:33;;;;;;;8.73;4.43;;;;;;;-1.15;100.00;97235.84;5037036;28;20100;-69
2024/01/15 08:27:00;;;;;;;6.83;4.33;;;;;;;-1.15;100.00;97254.06;5016051;28;20149;-69
2024/01/15 08:29:25;;;;;;;8.13;4.83;;;;;;;-1.16;100.00;97260.25;5017560;28;20144;-70
2024/01/15 08:31:51;;;;;;;8.80;4.97;;;;;;;-1.12;100.00;97243.38;5033725;28;20061;-69
2024/01/15 08:34:18;;;;;;;8.87;5.57;;;;;;;-1.07;100.00;97251.59;5032513;28;20045;-69
2024/01/15 08:36:44;;;;;;;7.90;5.00;;;;;;;-1.09;100.00;97250.09;4999368;28;20065;-69
2024/01/15 08:39:09;;;;;;;5.73;4.03;;;;;;;-1.13;100.00;97249.56;5016151;28;20079;-69
2024/01/15 08:41:35;;;;;;;5.07;3.50;;;;;;;-1.07;100.00;97254.19;4983165;28;20180;-68
2024/01/15 08:44:02;;;;;;;6.97;4.50;;;;;;;-1.05;100.00;97254.03;4999267;28;20061;-70
2024/01/15 08:46:28;;;;;;;7.27;4.67;;;;;;;-1.02;100.00;97241.56;5041323;28;20043;-68
2024/01/15 08:48:54;;;;;;;5.23;3.73;;;;;;;-0.99;100.00;97256.91;5059078;28;20052;-68
2024/01/15 08:51:19;;;;;;;7.87;4.50;;;;;;;-0.97;100.00;97244.53;5075369;28;20040;-69
2024/01/15 08:53:45;;;;;;;8.57;4.90;;;;;;;-1.00;100.00;97242.22;5061145;28;20436;-69
2024/01/15 08:56:14;;;;;;;6.97;4.70;;;;;;;-0.95;100.00;97246.97;5045365;28;20566;-69
2024/01/15 08:58:41;;;;;;;9.48;5.72;;;;;;;-0.93;100.00;97251.09;5076766;27;20501;-68
2024/01/15 09:01:08;;;;;;;10.13;6.40;;;;;;;-0.86;100.00;97246.94;5099899;27;20038;-68
2024/01/15 09:03:36;;;;;;;12.30;6.90;;;;;;;-0.86;100.00;97283.41;5083604;27;20054;-69
2024/01/15 09:06:02;;;;;;;11.27;7.10;;;;;;;-0.91;100.00;97246.56;5083267;27;20074;-69
2024/01/15 09:08:31;;;;;;;10.60;6.97;;;;;;;-0.81;100.00;97275.16;5116952;27;20031;-69
2024/01/15 09:10:59;;;;;;;10.90;6.83;;;;;;;-0.93;100.00;97245.06;5099932;27;20035;-69
2024/01/15 09:13:25;;;;;;;10.87;6.40;;;;;;;-0.92;100.00;97251.94;5098807;27;20065;-68
2024/01/15 09:15:50;;;;;;;12.37;7.90;;;;;;;-0.97;100.00;97248.94;5065248;27;20403;-68
2024/01/15 09:18:16;;;;;;;15.63;7.40;;;;;;;-0.88;100.00;97259.31;5081774;27;20092;-69
2024/01/15 09:20:44;;;;;;;12.37;7.30;;;;;;;-0.88;100.00;97259.31;5081851;27;20138;-68
2024/01/15 09:23:11;;;;;;;12.43;7.47;;;;;;;-0.85;100.00;97248.59;5081896;27;20054;-70
2024/01/15 09:25:37;;;;;;;14.60;8.20;;;;;;;-0.85;100.00;97243.38;5099043;27;20600;-69
2024/01/15 09:28:04;;;;;;;13.60;7.60;;;;;;;-0.75;100.00;97249.34;5065285;27;20039;-69
2024/01/15 09:30:30;;;;;;;10.93;7.27;;;;;;;-0.79;100.00;97258.44;5115737;27;20130;-68
2024/01/15 09:32:57;;;;;;;12.53;7.67;;;;;;;-0.81;100.00;97251.72;5061925;28;20051;-69
2024/01/15 09:35:23;;;;;;;13.70;8.50;;;;;;;-0.77;100.00;97256.47;5030303;28;20568;-68
2024/01/15 09:37:49;;;;;;;14.97;8.10;;;;;;;-0.74;100.00;97244.97;5014913;28;20156;-68
2024/01/15 09:40:15;;;;;;;14.30;7.87;;;;;;;-0.74;100.00;97264.00;4998787;28;20115;-68
2024/01/15 09:42:42;;;;;;;13.63;8.30;;;;;;;-0.65;100.00;97251.91;4982424;28;20069;-68
2024/01/15 09:45:09;;;;;;;14.50;8.13;;;;;;;-0.69;100.00;97251.38;4982700;28;20407;-69
2024/01/15 09:47:36;;;;;;;12.87;7.30;;;;;;;-0.62;100.00;97265.47;4982225;28;20141;-68
2024/01/15 09:50:04;;;;;;;13.47;7.27;;;;;;;-0.63;100.00;97257.78;4982315;28;20057;-69
2024/01/15 09:52:30;;;;;;;12.00;7.10;;;;;;;-0.59;100.00;97282.59;5031468;28;20064;-70
2024/01/15 09:54:58;;;;;;;11.40;7.33;;;;;;;-0.56;100.00;97244.03;5015038;28;20057;-69
2024/01/15 09:57:27;;;;;;;12.43;7.10;;;;;;;-0.51;100.00;97246.19;4982090;28;20050;-68
2024/01/15 09:59:54;;;;;;;13.40;7.40;;;;;;;-0.62;100.00;97255.03;5014753;28;20144;-68
2024/01/15 10:02:21;;;;;;;11.93;7.00;;;;;;;-0.58;100.00;97255.53;4998919;28;20160;-68
2024/01/15 10:04:47;;;;;;;12.90;8.00;;;;;;;-0.59;100.00;97269.56;5015390;28;20061;-69
2024/01/15 10:07:19;;;;;;;14.63;8.37;;;;;;;-0.51;100.00;97236.56;5031594;28;20489;-69
2024/01/15 10:09:46;;;;;;;13.73;8.00;;;;;;;-0.57;100.00;97259.81;5059955;28;20139;-69
2024/01/15 10:12:13;;;;;;;12.30;7.37;;;;;;;-0.59;100.00;97270.38;5086776;27;20059;-68
2024/01/15 10:14:43;;;;;;;13.33;7.80;;;;;;;-0.52;100.00;97266.22;5133626;27;20129;-69
2024/01/15 10:17:15;;;;;;;13.70;7.87;;;;;;;-0.57;100.00;97258.00;5115892;27;20051;-69
2024/01/15 10:19:43;;;;;;;11.07;6.17;;;;;;;-0.53;100.00;97248.94;5100425;27;20042;-68
2024/01/15 10:22:11;;;;;;;11.30;6.30;;;;;;;-0.49;100.00;97244.22;5134096;27;20054;-68
2024/01/15 10:24:40;;;;;;;10.43;6.63;;;;;;;-0.35;100.00;97256.75;5136769;27;20043;-69
2024/01/15 10:27:09;;;;;;;11.67;7.07;;;;;;;-0.31;100.00;97268.56;5153743;27;20121;-69
2024/01/15 10:29:35;;;;;;;12.63;6.80;;;;;;;-0.36;100.00;97257.75;5119556;27;20050;-68
2024/01/15 10:32:01;;;;;;;10.37;6.70;;;;;;;-0.37;100.00;97251.69;5118526;27;20134;-69
2024/01/15 10:34:27;;;;;;;15.13;7.70;;;;;;;-0.34;100.00;97259.22;5101136;27;20046;-68
2024/01/15 10:36:57;;;;;;;11.17;6.90;;;;;;;-0.27;100.00;97259.44;5097490;27;20105;-68
2024/01/15 10:39:23;;;;;;;10.77;7.13;;;;;;;-0.28;100.00;97245.59;5080793;27;20061;-68
2024/01/15 10:41:50;;;;;;;13.33;8.10;;;;;;;-0.23;100.00;97258.19;5097857;27;20050;-68
2024/01/15 10:44:17;;;;;;;13.30;7.87;;;;;;;-0.24;100.00;97244.34;5097960;27;20063;-68
2024/01/15 10:46:44;;;;;;;15.70;7.77;;;;;;;-0.24;100.00;97246.13;5056584;28;20060;-68
2024/01/15 10:49:11;;;;;;;14.37;8.37;;;;;;;-0.22;100.00;97268.47;5023896;28;20109;-69
2024/01/15 10:51:37;;;;;;;13.47;8.70;;;;;;;-0.26;100.00;97256.69;5056860;28;20146;-68
2024/01/15 10:54:05;;;;;;;16.27;8.50;;;;;;;-0.26;100.00;97256.69;5040533;28;20092;-69
2024/01/15 10:56:33;;;;;;;12.93;7.90;;;;;;;-0.20;100.00;97256.09;5039925;28;20047;-69
2024/01/15 10:58:59;;;;;;;12.63;8.23;;;;;;;-0.23;100.00;97258.19;5073709;28;20058;-68
2024/01/15 11:01:25;;;;;;;12.63;7.83;;;;;;;-0.23;100.00;97259.00;5039772;28;20087;-69
2024/01/15 11:03:52;;;;;;;13.87;7.90;;;;;;;-0.29;100.00;97230.09;5073543;28;20071;-68
2024/01/15 11:06:19;;;;;;;13.53;8.20;;;;;;;-0.23;100.00;97253.78;5036769;28;20088;-68
2024/01/15 11:08:50;;;;;;;13.47;7.77;;;;;;;-0.17;100.00;97231.53;5070429;28;20048;-68
2024/01/15 11:11:17;;;;;;;11.65;7.18;;;;;;;-0.15;100.00;97243.44;5039609;28;20510;-68
2024/01/15 11:13:44;;;;;;;12.97;7.50;;;;;;;-0.21;100.00;97243.22;5056202;28;20040;-69
2024/01/15 11:16:13;;;;;;;12.57;7.17;;;;;;;-0.13;100.00;97233.69;5055906;28;20483;-68
2024/01/15 11:18:57;;;;;;;10.70;6.27;;;;;;;0.00;100.00;97236.69;5111108;27;20464;-68